China, Texas
Current Conditions -  °F | °C
As of 9:55 PM on Tuesday 25 Nov 2014 (Local Time) from KBMT Reporting Station
Clear Clear  
Wind Chill: 40°   Ceiling: Unl
Heat Index: 40°   Visibility: 10mi
Dew Point: 38°   Wind: 0mph
Humidity: 91%   Direction: NA
Pressure: 30.25"   Gusts: NA
Location:  30.05°N, 94.34°W
Report Text: KBMT 260355Z AUTO 00000KT 10SM CLR 05/03 A3025 RMK AO2 T00460033
Loading
Personal Weather Stations






























Interactive Weather Map New forecast layout! Learn more

10-Day Weather Forecast

Advertisements
Track Severe Weather on mobile